Time;durP1;ratioP1;P1;durP2;ratioP2;P2;SDS_P1;SDS_P2;PMS_P1;PMS_P2;Temp;Humidity;BMP_temperature;BMP_pressure;BME280_temperature;BME280_humidity;BME280_pressure;Samples;Min_cycle;Max_cycle;Signal;HPM_P1;HPM_P2
2022/04/05 00:00:18;;;;;;;;;;;12.30;95.20;;;;;;5133853;27;19911;-74
2022/04/05 00:02:43;;;;;;;;;;;12.30;95.20;;;;;;5152359;27;19918;-74
2022/04/05 00:05:09;;;;;;;;;;;12.30;95.20;;;;;;5152785;27;19950;-74
2022/04/05 00:07:34;;;;;;;;;;;12.30;95.20;;;;;;5152292;27;20385;-74
2022/04/05 00:10:00;;;;;;;;;;;12.30;95.10;;;;;;5152249;27;19911;-74
2022/04/05 00:12:26;;;;;;;;;;;12.30;95.10;;;;;;5152192;27;19967;-74
2022/04/05 00:14:52;;;;;;;;;;;12.30;95.10;;;;;;5152312;27;20293;-74
2022/04/05 00:17:18;;;;;;;;;;;12.30;95.00;;;;;;5152208;27;20338;-74
2022/04/05 00:19:44;;;;;;;;;;;12.30;95.00;;;;;;5152113;27;19914;-74
2022/04/05 00:22:09;;;;;;;;;;;12.30;95.00;;;;;;5152085;27;19919;-74
2022/04/05 00:24:35;;;;;;;;;;;12.30;94.90;;;;;;5133454;27;20044;-74
2022/04/05 00:27:01;;;;;;;;;;;12.20;94.90;;;;;;5151937;27;20372;-74
2022/04/05 00:29:26;;;;;;;;;;;12.30;94.90;;;;;;5151859;27;19907;-74
2022/04/05 00:31:52;;;;;;;;;;;12.20;94.90;;;;;;5133100;27;19945;-74
2022/04/05 00:34:18;;;;;;;;;;;12.20;94.80;;;;;;5133303;27;19915;-74
2022/04/05 00:36:44;;;;;;;;;;;12.20;94.90;;;;;;5151495;27;19922;-74
2022/04/05 00:39:10;;;;;;;;;;;12.20;94.90;;;;;;5151590;27;19911;-75
2022/04/05 00:41:35;;;;;;;;;;;12.20;94.90;;;;;;5151829;27;19918;-74
2022/04/05 00:44:01;;;;;;;;;;;12.20;94.90;;;;;;5133157;27;19911;-74
2022/04/05 00:46:26;;;;;;;;;;;12.10;95.00;;;;;;5151403;27;19914;-74
2022/04/05 00:48:55;;;;;;;;;;;12.10;95.10;;;;;;5151554;27;19911;-74
2022/04/05 00:51:20;;;;;;;;;;;12.00;95.10;;;;;;5151627;27;20288;-74
2022/04/05 00:53:47;;;;;;;;;;;12.00;95.10;;;;;;5151341;27;20006;-73
2022/04/05 00:56:16;;;;;;;;;;;12.00;95.20;;;;;;5151367;27;19907;-74
2022/04/05 00:58:44;;;;;;;;;;;12.00;95.20;;;;;;5151465;27;19997;-74
2022/04/05 01:01:15;;;;;;;;;;;12.00;95.20;;;;;;5151349;27;19907;-74
2022/04/05 01:03:42;;;;;;;;;;;12.00;95.20;;;;;;5151253;27;20285;-74
2022/04/05 01:06:08;;;;;;;;;;;12.00;95.30;;;;;;5151191;27;19932;-74
2022/04/05 01:08:34;;;;;;;;;;;12.00;95.30;;;;;;5151029;27;19922;-74
2022/04/05 01:11:00;;;;;;;;;;;12.00;95.30;;;;;;5151353;27;19922;-74
2022/04/05 01:13:28;;;;;;;;;;;12.00;95.30;;;;;;5151124;27;19907;-74
2022/04/05 01:15:54;;;;;;;;;;;11.90;95.30;;;;;;5151076;27;19915;-74
2022/04/05 01:18:19;;;;;;;;;;;11.90;95.20;;;;;;5151006;27;19914;-74
2022/04/05 01:20:45;;;;;;;;;;;11.90;95.20;;;;;;5132235;27;20002;-74
2022/04/05 01:23:10;;;;;;;;;;;11.90;95.20;;;;;;5150969;27;19911;-74
2022/04/05 01:25:36;;;;;;;;;;;11.90;95.20;;;;;;5150871;27;19911;-74
2022/04/05 01:28:02;;;;;;;;;;;11.90;95.20;;;;;;5150604;27;19926;-74
2022/04/05 01:30:27;;;;;;;;;;;11.90;95.20;;;;;;5150927;27;20003;-74
2022/04/05 01:32:57;;;;;;;;;;;11.90;95.20;;;;;;5150581;27;19927;-74
2022/04/05 01:35:22;;;;;;;;;;;11.90;95.20;;;;;;5132778;27;19911;-74
2022/04/05 01:37:48;;;;;;;;;;;11.90;95.20;;;;;;5150673;27;19907;-74
2022/04/05 01:40:13;;;;;;;;;;;11.90;95.20;;;;;;5150391;27;20007;-74
2022/04/05 01:42:39;;;;;;;;;;;11.90;95.20;;;;;;5150532;27;19986;-74
2022/04/05 01:45:05;;;;;;;;;;;11.80;95.20;;;;;;5150541;27;20023;-74
2022/04/05 01:47:32;;;;;;;;;;;11.80;95.20;;;;;;5150370;27;20262;-74
2022/04/05 01:49:58;;;;;;;;;;;11.80;95.20;;;;;;5130919;27;19915;-74
2022/04/05 01:52:23;;;;;;;;;;;11.80;95.20;;;;;;5150580;27;19925;-74
2022/04/05 01:54:49;;;;;;;;;;;11.80;95.20;;;;;;5150219;27;19911;-74
2022/04/05 01:57:15;;;;;;;;;;;11.80;95.20;;;;;;5150345;27;19962;-74
2022/04/05 01:59:41;;;;;;;;;;;11.80;95.20;;;;;;5150118;27;20019;-74
2022/04/05 02:02:07;;;;;;;;;;;11.80;95.20;;;;;;5150214;27;20276;-74
2022/04/05 02:04:33;;;;;;;;;;;11.70;95.20;;;;;;5149986;27;20105;-74
2022/04/05 02:06:59;;;;;;;;;;;11.70;95.20;;;;;;5150140;27;19911;-74
2022/04/05 02:09:25;;;;;;;;;;;11.70;95.20;;;;;;5131446;27;20030;-74
2022/04/05 02:11:53;;;;;;;;;;;11.70;95.20;;;;;;5150015;27;19914;-74
2022/04/05 02:14:18;;;;;;;;;;;11.70;95.20;;;;;;5131243;27;19951;-74
2022/04/05 02:16:44;;;;;;;;;;;11.70;95.20;;;;;;5149930;27;19915;-74
2022/04/05 02:19:10;;;;;;;;;;;11.70;95.30;;;;;;5149764;27;19907;-74
2022/04/05 02:21:36;;;;;;;;;;;11.70;95.20;;;;;;5149927;27;19907;-74
2022/04/05 02:24:01;;;;;;;;;;;11.70;95.20;;;;;;5149769;27;19915;-74
2022/04/05 02:26:27;;;;;;;;;;;11.70;95.30;;;;;;5149803;27;19951;-74
2022/04/05 02:28:52;;;;;;;;;;;11.60;95.30;;;;;;5149824;27;19915;-74
2022/04/05 02:31:18;;;;;;;;;;;11.60;95.30;;;;;;5130994;27;20331;-74
2022/04/05 02:33:44;;;;;;;;;;;11.60;95.20;;;;;;5149670;27;20437;-74
2022/04/05 02:36:09;;;;;;;;;;;11.60;95.20;;;;;;5149655;27;20281;-74
2022/04/05 02:38:36;;;;;;;;;;;11.60;95.20;;;;;;5131091;27;19912;-74
2022/04/05 02:41:04;;;;;;;;;;;11.60;95.20;;;;;;5149647;27;19997;-74
2022/04/05 02:43:29;;;;;;;;;;;11.60;95.20;;;;;;5149601;27;19911;-74
2022/04/05 02:45:55;;;;;;;;;;;11.60;95.20;;;;;;5149659;27;20231;-74
2022/04/05 02:48:24;;;;;;;;;;;11.60;95.10;;;;;;5149335;27;19921;-74
2022/04/05 02:50:49;;;;;;;;;;;11.60;95.10;;;;;;5149471;27;19956;-74
2022/04/05 02:53:15;;;;;;;;;;;11.60;95.10;;;;;;5149484;27;20353;-74
2022/04/05 02:55:42;;;;;;;;;;;11.60;95.10;;;;;;5130905;27;19918;-74
2022/04/05 02:58:07;;;;;;;;;;;11.60;95.00;;;;;;5149563;27;20399;-74
2022/04/05 03:00:33;;;;;;;;;;;11.50;95.00;;;;;;5151913;27;19915;-74
2022/04/05 03:02:59;;;;;;;;;;;11.50;94.90;;;;;;5153649;27;19907;-74
2022/04/05 03:05:24;;;;;;;;;;;11.60;94.90;;;;;;5153628;27;19907;-74
2022/04/05 03:07:50;;;;;;;;;;;11.50;94.80;;;;;;5153484;27;19919;-74
2022/04/05 03:10:15;;;;;;;;;;;11.50;94.80;;;;;;5153530;27;19911;-74
2022/04/05 03:12:42;;;;;;;;;;;11.50;94.70;;;;;;5153425;27;19916;-74
2022/04/05 03:15:08;;;;;;;;;;;11.50;94.70;;;;;;5153523;27;19912;-74
2022/04/05 03:17:34;;;;;;;;;;;11.50;94.70;;;;;;5134806;27;20343;-74
2022/04/05 03:20:00;;;;;;;;;;;11.50;94.60;;;;;;5153420;27;20375;-74
2022/04/05 03:22:26;;;;;;;;;;;11.50;94.50;;;;;;5153231;27;19957;-74
2022/04/05 03:24:52;;;;;;;;;;;11.40;94.30;;;;;;5153268;27;19951;-74
2022/04/05 03:27:17;;;;;;;;;;;11.30;94.30;;;;;;5153092;27;19919;-74
2022/04/05 03:29:43;;;;;;;;;;;11.30;94.30;;;;;;5153128;27;19969;-74
2022/04/05 03:32:11;;;;;;;;;;;11.20;94.30;;;;;;5152846;27;20401;-74
2022/04/05 03:34:37;;;;;;;;;;;11.20;94.30;;;;;;5153127;27;19922;-74
2022/04/05 03:37:03;;;;;;;;;;;11.10;94.40;;;;;;5152963;27;19914;-74
2022/04/05 03:39:28;;;;;;;;;;;11.10;94.40;;;;;;5153015;27;19912;-74
2022/04/05 03:41:54;;;;;;;;;;;11.00;94.40;;;;;;5152831;27;19911;-74
2022/04/05 03:44:20;;;;;;;;;;;11.00;94.40;;;;;;5152896;27;19911;-74
2022/04/05 03:46:46;;;;;;;;;;;10.90;94.30;;;;;;5152610;27;20014;-74
2022/04/05 03:49:11;;;;;;;;;;;10.90;94.40;;;;;;5152660;27;20018;-74
2022/04/05 03:51:37;;;;;;;;;;;10.90;94.40;;;;;;5152873;27;20014;-74
2022/04/05 03:54:02;;;;;;;;;;;11.00;94.40;;;;;;5135263;27;19922;-74
2022/04/05 03:56:28;;;;;;;;;;;11.00;94.40;;;;;;5134115;27;19911;-74
2022/04/05 03:58:54;;;;;;;;;;;11.00;94.40;;;;;;5152217;27;20314;-74
2022/04/05 04:01:19;;;;;;;;;;;10.90;94.30;;;;;;5152006;27;19933;-74
2022/04/05 04:03:45;;;;;;;;;;;10.90;94.30;;;;;;5152080;27;20064;-74
2022/04/05 04:06:10;;;;;;;;;;;10.90;94.40;;;;;;5152493;27;19911;-74
2022/04/05 04:08:36;;;;;;;;;;;10.90;94.40;;;;;;5152354;27;20365;-74
2022/04/05 04:11:01;;;;;;;;;;;10.80;94.40;;;;;;5133187;27;19919;-73
2022/04/05 04:13:27;;;;;;;;;;;10.80;94.50;;;;;;5152235;27;19998;-74
2022/04/05 04:15:53;;;;;;;;;;;10.80;94.60;;;;;;5152229;27;19918;-74
2022/04/05 04:18:18;;;;;;;;;;;10.80;94.60;;;;;;5133632;27;20285;-74
2022/04/05 04:20:44;;;;;;;;;;;10.80;94.70;;;;;;5152304;27;20318;-74
2022/04/05 04:23:10;;;;;;;;;;;10.70;94.70;;;;;;5152096;27;19915;-74
2022/04/05 04:25:39;;;;;;;;;;;10.70;94.80;;;;;;5133848;27;19914;-74
2022/04/05 04:28:05;;;;;;;;;;;10.70;94.90;;;;;;5151856;27;19911;-74
2022/04/05 04:30:31;;;;;;;;;;;10.70;94.90;;;;;;5151980;27;20403;-74
2022/04/05 04:32:57;;;;;;;;;;;10.70;95.00;;;;;;5151950;27;19923;-74
2022/04/05 04:35:23;;;;;;;;;;;10.70;95.10;;;;;;5151917;27;19918;-74
2022/04/05 04:37:48;;;;;;;;;;;10.70;95.20;;;;;;5151850;27;19919;-74
2022/04/05 04:40:14;;;;;;;;;;;10.70;95.20;;;;;;5151717;27;20368;-74
2022/04/05 04:42:39;;;;;;;;;;;10.70;95.30;;;;;;5151742;27;19918;-74
2022/04/05 04:45:05;;;;;;;;;;;10.80;95.30;;;;;;5133141;27;20396;-73
2022/04/05 04:47:31;;;;;;;;;;;10.80;95.30;;;;;;5151518;27;20632;-74
2022/04/05 04:49:56;;;;;;;;;;;10.80;95.30;;;;;;5151623;27;19955;-74
2022/04/05 04:52:22;;;;;;;;;;;10.80;95.30;;;;;;5133065;27;19919;-74
2022/04/05 04:54:47;;;;;;;;;;;10.80;95.30;;;;;;5151389;27;19915;-73
2022/04/05 04:57:13;;;;;;;;;;;10.80;95.20;;;;;;5151346;27;20368;-74
2022/04/05 04:59:39;;;;;;;;;;;10.90;95.10;;;;;;5151376;27;19907;-74
2022/04/05 05:02:04;;;;;;;;;;;10.90;95.00;;;;;;5151249;27;19907;-74
2022/04/05 05:04:30;;;;;;;;;;;10.90;94.90;;;;;;5151379;27;19922;-74
2022/04/05 05:06:56;;;;;;;;;;;11.00;94.80;;;;;;5151174;27;19934;-74
2022/04/05 05:09:21;;;;;;;;;;;11.00;94.60;;;;;;5151070;27;19919;-74
2022/04/05 05:11:47;;;;;;;;;;;11.00;94.40;;;;;;5151066;27;19907;-74
2022/04/05 05:14:12;;;;;;;;;;;11.00;94.30;;;;;;5151021;27;19950;-73
2022/04/05 05:16:38;;;;;;;;;;;11.10;94.20;;;;;;5150895;27;19911;-74
2022/04/05 05:19:05;;;;;;;;;;;11.10;94.00;;;;;;5132443;27;19930;-74
2022/04/05 05:21:30;;;;;;;;;;;11.10;93.80;;;;;;5132370;27;19919;-74
2022/04/05 05:23:56;;;;;;;;;;;11.10;93.70;;;;;;5149818;27;20258;-74
2022/04/05 05:26:21;;;;;;;;;;;11.10;93.50;;;;;;5150798;27;19919;-74
2022/04/05 05:28:47;;;;;;;;;;;11.20;93.40;;;;;;5150638;27;20303;-73
2022/04/05 05:31:13;;;;;;;;;;;11.20;93.30;;;;;;5150403;27;19911;-72
2022/04/05 05:33:38;;;;;;;;;;;11.20;93.10;;;;;;5132038;27;20013;-69
2022/04/05 05:36:04;;;;;;;;;;;11.20;93.10;;;;;;5150523;27;19912;-73
2022/04/05 05:38:30;;;;;;;;;;;11.20;93.00;;;;;;5150836;27;19926;-72
2022/04/05 05:40:55;;;;;;;;;;;11.20;93.00;;;;;;5150669;27;20373;-72
2022/04/05 05:43:22;;;;;;;;;;;11.20;92.90;;;;;;5131734;27;19926;-73
2022/04/05 05:45:47;;;;;;;;;;;11.20;92.80;;;;;;5150401;27;19919;-73
2022/04/05 05:48:13;;;;;;;;;;;11.20;92.80;;;;;;5150134;27;19915;-73
2022/04/05 05:50:38;;;;;;;;;;;11.20;92.70;;;;;;5150290;27;19911;-73
2022/04/05 05:53:04;;;;;;;;;;;11.20;92.80;;;;;;5150223;27;20315;-73
2022/04/05 05:55:30;;;;;;;;;;;11.20;92.80;;;;;;5149914;27;20261;-73
2022/04/05 05:57:56;;;;;;;;;;;11.10;92.70;;;;;;5130961;27;19914;-73
2022/04/05 06:00:22;;;;;;;;;;;11.10;92.80;;;;;;5149948;27;19911;-73
2022/04/05 06:02:49;;;;;;;;;;;11.10;92.70;;;;;;5149992;27;20234;-74
2022/04/05 06:05:15;;;;;;;;;;;11.10;92.70;;;;;;5149731;27;19907;-73
2022/04/05 06:07:41;;;;;;;;;;;11.10;92.70;;;;;;5150129;27;19915;-73
2022/04/05 06:10:08;;;;;;;;;;;11.10;92.70;;;;;;5149777;27;19914;-73
2022/04/05 06:12:36;;;;;;;;;;;11.00;92.70;;;;;;5149284;27;20696;-73
2022/04/05 06:15:02;;;;;;;;;;;11.00;92.70;;;;;;5149664;27;19921;-72
2022/04/05 06:17:27;;;;;;;;;;;11.00;92.70;;;;;;5149451;27;19911;-73
2022/04/05 06:19:53;;;;;;;;;;;11.00;92.70;;;;;;5149559;27;20377;-73
2022/04/05 06:22:18;;;;;;;;;;;11.00;92.70;;;;;;5149992;27;20369;-73
2022/04/05 06:24:46;;;;;;;;;;;11.00;92.80;;;;;;5149568;27;19915;-73
2022/04/05 06:27:11;;;;;;;;;;;11.00;92.80;;;;;;5149671;27;20067;-74
2022/04/05 06:29:37;;;;;;;;;;;11.10;92.80;;;;;;5149157;27;20349;-73
2022/04/05 06:32:02;;;;;;;;;;;11.10;92.80;;;;;;5149398;27;19946;-74
2022/04/05 06:34:28;;;;;;;;;;;11.10;92.70;;;;;;5149327;27;19911;-73
2022/04/05 06:36:54;;;;;;;;;;;11.10;92.70;;;;;;5130735;27;19998;-73
2022/04/05 06:39:19;;;;;;;;;;;11.10;92.70;;;;;;5149121;27;19911;-73
2022/04/05 06:41:45;;;;;;;;;;;11.10;92.70;;;;;;5149232;27;19918;-73
2022/04/05 06:44:11;;;;;;;;;;;11.10;92.70;;;;;;5149119;27;19958;-73
2022/04/05 06:46:37;;;;;;;;;;;11.20;92.80;;;;;;5149193;27;19954;-73
2022/04/05 06:49:03;;;;;;;;;;;11.20;92.70;;;;;;5149032;27;19911;-73
2022/04/05 06:51:29;;;;;;;;;;;11.20;92.70;;;;;;5149043;27;20293;-74
2022/04/05 06:53:56;;;;;;;;;;;11.20;92.70;;;;;;5149021;27;20014;-74
2022/04/05 06:56:26;;;;;;;;;;;11.30;92.70;;;;;;5148821;27;19915;-74
2022/04/05 06:58:52;;;;;;;;;;;11.30;92.70;;;;;;5148993;27;19919;-73
2022/04/05 07:01:18;;;;;;;;;;;11.30;92.70;;;;;;5149250;27;19978;-73
2022/04/05 07:03:43;;;;;;;;;;;11.30;92.70;;;;;;5149431;27;20372;-74
2022/04/05 07:06:09;;;;;;;;;;;11.30;92.70;;;;;;5149061;27;20320;-73
2022/04/05 07:08:35;;;;;;;;;;;11.40;92.70;;;;;;5148756;27;19911;-74
2022/04/05 07:11:00;;;;;;;;;;;11.40;92.80;;;;;;5130420;27;19959;-74
2022/04/05 07:13:26;;;;;;;;;;;11.40;92.80;;;;;;5130795;27;19922;-74
2022/04/05 07:15:52;;;;;;;;;;;11.40;92.80;;;;;;5149133;27;19922;-74
2022/04/05 07:18:17;;;;;;;;;;;11.40;92.80;;;;;;5148759;27;20001;-74
2022/04/05 07:20:43;;;;;;;;;;;11.40;92.90;;;;;;5149147;27;19922;-74
2022/04/05 07:23:08;;;;;;;;;;;11.40;93.00;;;;;;5149009;27;19915;-74
2022/04/05 07:25:35;;;;;;;;;;;11.40;93.00;;;;;;5148630;27;20335;-74
2022/04/05 07:28:02;;;;;;;;;;;11.40;93.30;;;;;;5148377;27;20298;-74
2022/04/05 07:30:28;;;;;;;;;;;11.50;93.10;;;;;;5129783;27;19911;-74
2022/04/05 07:32:54;;;;;;;;;;;11.50;93.20;;;;;;5148305;27;19923;-74
2022/04/05 07:35:19;;;;;;;;;;;11.60;93.30;;;;;;5148804;27;20338;-74
2022/04/05 07:37:46;;;;;;;;;;;11.60;93.20;;;;;;5149109;27;19907;-75
2022/04/05 07:40:12;;;;;;;;;;;11.60;93.30;;;;;;5149113;27;19911;-73
2022/04/05 07:42:38;;;;;;;;;;;11.70;93.30;;;;;;5131370;27;20415;-75
2022/04/05 07:45:05;;;;;;;;;;;11.70;93.30;;;;;;5148915;27;19907;-74
2022/04/05 07:47:30;;;;;;;;;;;11.70;93.20;;;;;;5150709;27;19926;-75
2022/04/05 07:49:56;;;;;;;;;;;11.80;93.20;;;;;;5133508;27;20350;-74
2022/04/05 07:52:21;;;;;;;;;;;11.70;93.30;;;;;;5152156;27;20005;-74
2022/04/05 07:54:47;;;;;;;;;;;11.70;93.30;;;;;;5151731;27;19914;-74
2022/04/05 07:57:13;;;;;;;;;;;11.70;93.40;;;;;;5151459;27;19959;-74
2022/04/05 07:59:39;;;;;;;;;;;11.70;93.50;;;;;;5151735;27;19948;-74
2022/04/05 08:02:05;;;;;;;;;;;11.80;93.50;;;;;;5151858;27;19975;-74
2022/04/05 08:04:30;;;;;;;;;;;11.80;93.50;;;;;;5151480;27;20353;-74
2022/04/05 08:06:56;;;;;;;;;;;11.80;93.50;;;;;;5133270;27;20373;-75
2022/04/05 08:09:22;;;;;;;;;;;11.80;93.50;;;;;;5151458;27;19945;-75
2022/04/05 08:11:48;;;;;;;;;;;11.90;93.50;;;;;;5151300;27;20286;-73
2022/04/05 08:14:13;;;;;;;;;;;12.00;93.50;;;;;;5150688;27;19915;-74
2022/04/05 08:16:39;;;;;;;;;;;12.10;93.50;;;;;;5151125;27;19968;-73
2022/04/05 08:19:05;;;;;;;;;;;12.30;93.50;;;;;;5151267;27;20361;-74
2022/04/05 08:21:31;;;;;;;;;;;12.40;93.40;;;;;;5151528;27;19951;-74
2022/04/05 08:23:57;;;;;;;;;;;12.60;93.10;;;;;;5129714;27;19911;-73
2022/04/05 08:26:22;;;;;;;;;;;12.60;92.80;;;;;;5151552;27;19907;-73
2022/04/05 08:28:48;;;;;;;;;;;12.60;92.80;;;;;;5131784;27;19964;-73
2022/04/05 08:31:16;;;;;;;;;;;12.60;92.70;;;;;;5131964;27;19911;-73
2022/04/05 08:33:42;;;;;;;;;;;12.60;92.60;;;;;;5150615;27;19919;-73
2022/04/05 08:36:07;;;;;;;;;;;12.60;92.50;;;;;;5150685;27;19914;-74
2022/04/05 08:38:33;;;;;;;;;;;12.50;92.60;;;;;;5150718;27;19918;-74
2022/04/05 08:41:02;;;;;;;;;;;12.50;92.40;;;;;;5150783;27;19921;-71
2022/04/05 08:43:29;;;;;;;;;;;12.50;92.40;;;;;;5151095;27;19931;-73
2022/04/05 08:45:58;;;;;;;;;;;12.50;92.60;;;;;;5151490;27;19917;-74
2022/04/05 08:48:26;;;;;;;;;;;12.50;92.50;;;;;;5149427;27;19918;-73
2022/04/05 08:50:52;;;;;;;;;;;12.60;92.60;;;;;;5150127;27;19958;-73
2022/04/05 08:53:18;;;;;;;;;;;12.60;92.50;;;;;;5150110;27;19973;-74
2022/04/05 08:55:44;;;;;;;;;;;12.70;92.40;;;;;;5150027;27;19907;-73
2022/04/05 08:58:09;;;;;;;;;;;12.80;92.30;;;;;;5149905;27;20273;-74
2022/04/05 09:00:35;;;;;;;;;;;12.80;92.20;;;;;;5150149;27;19911;-73
2022/04/05 09:03:01;;;;;;;;;;;12.80;92.20;;;;;;5148843;27;19911;-73
2022/04/05 09:05:28;;;;;;;;;;;12.90;92.30;;;;;;5149192;27;19908;-73
2022/04/05 09:07:54;;;;;;;;;;;13.10;92.30;;;;;;5129790;27;20368;-73
2022/04/05 09:10:19;;;;;;;;;;;13.20;92.10;;;;;;5148728;27;19921;-73
2022/04/05 09:12:46;;;;;;;;;;;13.30;92.10;;;;;;5149001;27;19943;-73
2022/04/05 09:15:21;;;;;;;;;;;13.40;91.80;;;;;;5130115;27;20372;-73
2022/04/05 09:17:47;;;;;;;;;;;13.30;91.50;;;;;;5149376;27;20377;-74
2022/04/05 09:20:14;;;;;;;;;;;13.30;91.40;;;;;;5150001;27;20002;-73
2022/04/05 09:22:40;;;;;;;;;;;13.30;91.50;;;;;;5150311;27;19914;-73
2022/04/05 09:25:07;;;;;;;;;;;13.30;91.30;;;;;;5150993;27;19923;-75
2022/04/05 09:27:45;;;;;;;;;;;13.30;91.40;;;;;;5150288;27;19922;-74
2022/04/05 09:30:12;;;;;;;;;;;13.40;91.40;;;;;;5149164;27;19915;-73
2022/04/05 09:32:40;;;;;;;;;;;13.50;91.40;;;;;;5151002;27;19926;-74
2022/04/05 09:35:06;;;;;;;;;;;13.60;91.10;;;;;;5148346;27;19915;-74
2022/04/05 09:37:36;;;;;;;;;;;13.60;91.10;;;;;;5150449;27;19911;-74
2022/04/05 09:40:20;;;;;;;;;;;13.70;91.30;;;;;;5150537;27;19960;-74
2022/04/05 09:43:05;;;;;;;;;;;13.90;91.20;;;;;;5131935;27;19959;-73
2022/04/05 09:46:00;;;;;;;;;;;14.20;91.50;;;;;;5148098;27;19916;-74
2022/04/05 09:48:30;;;;;;;;;;;14.40;90.50;;;;;;5150833;27;19956;-74
2022/04/05 09:51:12;;;;;;;;;;;14.50;90.40;;;;;;5150918;27;19907;-76
2022/04/05 09:53:43;;;;;;;;;;;14.50;90.30;;;;;;5130772;27;19963;-74
2022/04/05 09:56:15;;;;;;;;;;;14.60;90.00;;;;;;5150585;27;19914;-73
2022/04/05 09:58:46;;;;;;;;;;;14.70;90.20;;;;;;5131140;27;19918;-73
2022/04/05 10:01:12;;;;;;;;;;;15.10;90.40;;;;;;5149714;27;19915;-72
2022/04/05 10:03:41;;;;;;;;;;;15.50;89.90;;;;;;5150162;27;19926;-74
2022/04/05 10:06:07;;;;;;;;;;;15.60;88.60;;;;;;5149641;27;20491;-73
2022/04/05 10:08:33;;;;;;;;;;;15.50;87.50;;;;;;5150021;27;19918;-72
2022/04/05 10:10:59;;;;;;;;;;;15.50;87.40;;;;;;5149712;27;20006;-72
2022/04/05 10:13:24;;;;;;;;;;;15.50;87.30;;;;;;5150128;27;20523;-72
2022/04/05 10:15:51;;;;;;;;;;;15.50;87.30;;;;;;5149929;27;19919;-73
2022/04/05 10:18:18;;;;;;;;;;;15.60;87.70;;;;;;5130842;27;19907;-72
2022/04/05 10:20:46;;;;;;;;;;;15.70;87.10;;;;;;5149585;27;19926;-72
2022/04/05 10:23:12;;;;;;;;;;;15.70;86.40;;;;;;5149676;27;19914;-71
2022/04/05 10:25:41;;;;;;;;;;;15.70;85.50;;;;;;5149846;27;20280;-71
2022/04/05 10:28:07;;;;;;;;;;;15.50;85.10;;;;;;5149713;27;19958;-72
2022/04/05 10:30:38;;;;;;;;;;;15.40;85.20;;;;;;5149977;27;19958;-71
2022/04/05 10:33:06;;;;;;;;;;;15.30;85.10;;;;;;5149711;27;19987;-73
2022/04/05 10:35:32;;;;;;;;;;;15.30;85.30;;;;;;5149846;27;19950;-73
2022/04/05 10:38:14;;;;;;;;;;;15.30;84.60;;;;;;5131178;27;19925;-73
2022/04/05 10:40:40;;;;;;;;;;;15.30;84.30;;;;;;5148058;27;19907;-72
2022/04/05 10:43:19;;;;;;;;;;;15.30;84.30;;;;;;5149745;27;20524;-72
2022/04/05 10:45:45;;;;;;;;;;;15.20;84.00;;;;;;5147982;27;20357;-75
2022/04/05 10:48:12;;;;;;;;;;;15.30;83.30;;;;;;5149809;27;19964;-70
2022/04/05 10:50:39;;;;;;;;;;;15.20;82.80;;;;;;5149706;27;19911;-72
2022/04/05 10:53:17;;;;;;;;;;;15.10;82.60;;;;;;5149641;27;19922;-73
2022/04/05 10:56:01;;;;;;;;;;;15.10;82.20;;;;;;5147535;27;20388;-74
2022/04/05 10:58:26;;;;;;;;;;;15.00;82.50;;;;;;5148057;27;19911;-74
2022/04/05 11:01:11;;;;;;;;;;;15.20;82.40;;;;;;5149308;27;20242;-72
2022/04/05 11:03:36;;;;;;;;;;;15.30;82.10;;;;;;5128119;27;19907;-72
2022/04/05 11:06:03;;;;;;;;;;;15.30;81.50;;;;;;5148258;27;19935;-73
2022/04/05 11:08:30;;;;;;;;;;;15.20;81.60;;;;;;5149343;27;20280;-73
2022/04/05 11:10:59;;;;;;;;;;;15.20;81.70;;;;;;5146727;27;19934;-74
2022/04/05 11:13:38;;;;;;;;;;;15.10;81.80;;;;;;5130625;27;19911;-74
2022/04/05 11:16:04;;;;;;;;;;;15.00;82.10;;;;;;5148570;27;20260;-75
2022/04/05 11:18:33;;;;;;;;;;;15.40;82.40;;;;;;5149428;27;19911;-74
2022/04/05 11:20:58;;;;;;;;;;;15.60;82.40;;;;;;5149556;27;19919;-74
2022/04/05 11:23:43;;;;;;;;;;;15.90;82.00;;;;;;5152512;27;19907;-74
2022/04/05 11:26:41;;;;;;;;;;;16.00;81.10;;;;;;5152557;27;20010;-73
2022/04/05 11:29:20;;;;;;;;;;;16.00;79.50;;;;;;5117598;27;19921;-74
2022/04/05 11:31:45;;;;;;;;;;;15.90;80.10;;;;;;5151746;27;20002;-74
2022/04/05 11:34:29;;;;;;;;;;;16.00;80.40;;;;;;5152594;27;20017;-73
2022/04/05 11:36:55;;;;;;;;;;;16.10;80.10;;;;;;5133969;27;19907;-74
2022/04/05 11:39:20;;;;;;;;;;;16.20;79.40;;;;;;5133378;27;19915;-73
2022/04/05 11:41:46;;;;;;;;;;;16.30;78.40;;;;;;5132906;27;19921;-74
2022/04/05 11:44:14;;;;;;;;;;;16.30;78.40;;;;;;5151433;27;19985;-73
2022/04/05 11:46:40;;;;;;;;;;;16.30;78.40;;;;;;5151694;27;19907;-74
2022/04/05 11:49:07;;;;;;;;;;;16.40;78.40;;;;;;5131753;27;20270;-74
2022/04/05 11:51:34;;;;;;;;;;;16.40;77.50;;;;;;5150685;27;19907;-73
2022/04/05 11:54:03;;;;;;;;;;;16.30;76.90;;;;;;5150534;27;19907;-74
2022/04/05 11:56:28;;;;;;;;;;;16.20;75.90;;;;;;5150540;27;19942;-74
2022/04/05 11:58:56;;;;;;;;;;;16.00;75.90;;;;;;5149982;27;20364;-74
2022/04/05 12:01:24;;;;;;;;;;;15.80;75.40;;;;;;5150439;27;20004;-73
2022/04/05 12:03:52;;;;;;;;;;;15.70;75.30;;;;;;5132229;27;19951;-73
2022/04/05 12:06:19;;;;;;;;;;;15.50;75.30;;;;;;5132663;27;20022;-73
2022/04/05 12:08:45;;;;;;;;;;;15.40;75.60;;;;;;5151396;27;19911;-74
2022/04/05 12:11:14;;;;;;;;;;;15.20;75.30;;;;;;5151271;27;20361;-73
2022/04/05 12:13:49;;;;;;;;;;;15.10;75.30;;;;;;5151825;27;19942;-74
2022/04/05 12:16:15;;;;;;;;;;;15.00;75.60;;;;;;5151641;27;19907;-73
2022/04/05 12:18:41;;;;;;;;;;;15.00;76.10;;;;;;5132571;27;19918;-73
2022/04/05 12:21:08;;;;;;;;;;;14.90;76.10;;;;;;5151986;27;19915;-74
2022/04/05 12:23:38;;;;;;;;;;;14.90;76.30;;;;;;5151956;27;20257;-74
2022/04/05 12:26:05;;;;;;;;;;;15.00;76.30;;;;;;5151421;27;19907;-74
2022/04/05 12:28:31;;;;;;;;;;;15.00;76.10;;;;;;5151240;27;19959;-74
2022/04/05 12:31:17;;;;;;;;;;;15.10;75.90;;;;;;5151160;27;19960;-73
2022/04/05 12:34:01;;;;;;;;;;;15.20;75.70;;;;;;5150661;27;19926;-73
2022/04/05 12:36:34;;;;;;;;;;;15.30;75.30;;;;;;5151306;27;20272;-74
2022/04/05 12:39:01;;;;;;;;;;;15.40;74.90;;;;;;5151201;27;19946;-73
2022/04/05 12:41:26;;;;;;;;;;;15.40;75.00;;;;;;5151856;27;19920;-73
2022/04/05 12:44:12;;;;;;;;;;;15.50;75.00;;;;;;5152187;27;19911;-73
2022/04/05 12:46:40;;;;;;;;;;;15.50;74.90;;;;;;5149728;27;19907;-74
2022/04/05 12:49:13;;;;;;;;;;;15.60;74.70;;;;;;5132868;27;20593;-74
2022/04/05 12:51:39;;;;;;;;;;;15.60;74.10;;;;;;5151085;27;19915;-73
2022/04/05 12:54:05;;;;;;;;;;;15.70;74.20;;;;;;5151378;27;19968;-74
2022/04/05 12:56:32;;;;;;;;;;;15.80;73.60;;;;;;5151386;27;20008;-73
2022/04/05 12:59:03;;;;;;;;;;;15.90;73.40;;;;;;5152171;27;19919;-73
2022/04/05 13:01:29;;;;;;;;;;;16.10;73.30;;;;;;5152860;27;19911;-73
2022/04/05 13:04:12;;;;;;;;;;;16.30;72.90;;;;;;5152093;27;20009;-73
2022/04/05 13:06:38;;;;;;;;;;;16.30;73.00;;;;;;5132915;27;20014;-72
2022/04/05 13:09:08;;;;;;;;;;;16.40;72.40;;;;;;5151552;27;19915;-74
2022/04/05 13:11:35;;;;;;;;;;;16.30;71.70;;;;;;5150668;27;19946;-74
2022/04/05 13:14:08;;;;;;;;;;;16.10;72.00;;;;;;5151486;27;20375;-73
2022/04/05 13:16:34;;;;;;;;;;;15.90;72.20;;;;;;5150882;27;19918;-74
2022/04/05 13:19:18;;;;;;;;;;;15.70;72.30;;;;;;5150673;27;19915;-73
2022/04/05 13:21:45;;;;;;;;;;;15.60;72.00;;;;;;5131846;27;20353;-74
2022/04/05 13:24:11;;;;;;;;;;;15.40;72.20;;;;;;5150369;27;19919;-73
2022/04/05 13:26:38;;;;;;;;;;;15.30;72.60;;;;;;5150132;27;19911;-73
2022/04/05 13:29:07;;;;;;;;;;;15.30;72.90;;;;;;5150307;27;19912;-74
2022/04/05 13:31:33;;;;;;;;;;;15.30;73.10;;;;;;5150141;27;19915;-73
2022/04/05 13:33:59;;;;;;;;;;;15.40;73.40;;;;;;5150544;27;19972;-73
2022/04/05 13:36:25;;;;;;;;;;;15.50;73.40;;;;;;5150300;27;19911;-73
2022/04/05 13:38:51;;;;;;;;;;;15.60;73.20;;;;;;5111189;27;19926;-72
2022/04/05 13:41:19;;;;;;;;;;;15.60;73.30;;;;;;5150083;27;20271;-73
2022/04/05 13:43:45;;;;;;;;;;;15.60;73.10;;;;;;5150426;27;20337;-73
2022/04/05 13:46:10;;;;;;;;;;;15.50;73.00;;;;;;5131169;27;20405;-73
2022/04/05 13:48:36;;;;;;;;;;;15.40;73.20;;;;;;5150415;27;19911;-74
2022/04/05 13:51:01;;;;;;;;;;;15.40;73.40;;;;;;5150588;27;19947;-73
2022/04/05 13:53:30;;;;;;;;;;;15.40;73.60;;;;;;5150360;27;20397;-73
2022/04/05 13:55:57;;;;;;;;;;;15.30;73.80;;;;;;5114029;27;19918;-73
2022/04/05 13:58:22;;;;;;;;;;;15.30;73.90;;;;;;5149126;27;20363;-73
2022/04/05 14:00:48;;;;;;;;;;;15.20;74.10;;;;;;5149073;27;19958;-73
2022/04/05 14:03:13;;;;;;;;;;;15.20;74.20;;;;;;5150208;27;19914;-73
2022/04/05 14:05:39;;;;;;;;;;;15.10;74.30;;;;;;5150384;27;19915;-73
2022/04/05 14:08:06;;;;;;;;;;;15.20;74.50;;;;;;5149923;27;19936;-72
2022/04/05 14:10:32;;;;;;;;;;;15.10;74.50;;;;;;5150129;27;20582;-72
2022/04/05 14:12:58;;;;;;;;;;;15.20;74.90;;;;;;5150790;27;19911;-73
2022/04/05 14:15:23;;;;;;;;;;;15.20;74.90;;;;;;5149929;27;19907;-73